AddedLatest Added eBooks:

  1. 2021-05-14Those Who Wish Me Dead 2021 1080p WEBRip x264-RARBG - Removed
  2. 2021-05-14County Lines 2019 REPACK 720p BluRay x264-GAZER
  3. 2021-05-14Cummins QuickServe DVD 2017 Power Generatio
  4. 2021-05-14Halston S01E04 1080p HEVC x265-MeGusta
  5. 2021-05-14Wakefield S01E04 1080p HEVC x265-MeGusta
  6. 2021-05-14Love Death and Robots S02E02 1080p HEVC x265-MeGusta
  7. 2021-05-14I Am All Girls 2021 1080p WEBRip x264-RARBG
  8. 2021-05-14Law and Order Organized Crime S01E05 720p HEVC x265-MeGusta
  9. 2021-05-14Perkins SPI2 2018A Multilingual *Reupload*
  10. 2021-05-14Love Death and Robots S02E03 1080p HEVC x265-MeGusta
  11. 2021-05-14Love Death and Robots S02E04 1080p HEVC x265-MeGusta
  12. 2021-05-14Flutter & Dart - The Complete Guide 2021 Edition (Update 05/2021)
  13. 2021-05-14Those Who Wish Me Dead 2021 1080p WEBRip 1400MB DD5 1 x264-GalaxyRG
  14. 2021-05-14Halston S01E05 1080p HEVC x265-MeGusta
  15. by Spencer Coursen / 2021-05-14The Safety Trap: A Security Expert's Secrets for Staying Safe in a Dangerous World
  16. 2021-05-14Mitchell Ultramate 7.1.241 (04.2021)
  17. 2021-05-14The Woman in the Window 2021 1080p WEBRip x265-RARBG
  18. by Brian Moylan / 2021-05-14The Housewives: The Real Story Behind the Real Housewives
  19. 2021-05-14Jimmy Kimmel 2021 05 13 Chris Rock 720p HEVC x265-MeGusta
  20. 2021-05-14Jimmy Fallon 2021 05 13 Keegan-Michael Key 720p HEVC x265-MeGusta
  21. by Rebecca Campbell / 2021-05-14Letters to a Starseed: Messages and Activations for Remembering Who You Are and Why You Came Here
  22. by Anthony Falco / 2021-05-14Pizza Czar: Recipes and Know-How from a World-Traveling Pizza Chef
  23. 2021-05-14Law and Order Organized Crime S01E05 1080p HEVC x265-MeGusta
  24. 2021-05-14Mysteries of the Universe Our Solar System S01E01 Mars Hunt for Alien Life 720p HEVC x265-MeGusta
  25. 2021-05-14Homemade Astronauts S01E04 Battles of Test Flight 720p HEVC x265-MeGusta
  26. by Ray Didinger / 2021-05-14Finished Business: My Fifty Years of Headlines, Heroes, and Heartaches
  27. 2021-05-14Homemade Astronauts S01E01 I Want to Go to Space 720p HEVC x265-MeGusta
  28. 2021-05-14The Killing of Two Lovers 2020 1080p WEBRip 1400MB DD5 1 x264-GalaxyRG
  29. 2021-05-14North Hollywood 2021 1080p WEB-DL DD5 1 H264-FGT
  30. 2021-05-14The Great Pottery Throw Down S01E01 1080p HEVC x265-MeGusta
  31. by Sebastian Junger / 2021-05-14Freedom
  32. 2021-05-14Mysteries of the Universe Our Solar System S01E04 Venus Earths Alien Twin 720p HEVC x265-MeGusta
  33. 2021-05-14Mysteries of the Universe Our Solar System S01E03 Mission to the Sun 720p HEVC x265-MeGusta
  34. 2021-05-14Mysteries of the Universe Our Solar System S02E01 Secrets of Saturn 720p HEVC x265-MeGusta
  35. 2021-05-14The Great Pottery Throw Down S01E05 1080p HEVC x265-MeGusta
  36. 2021-05-14Wild Mountain Thyme 2020 1080p BluRay x264 DTS-HD MA 5 1-MT
  37. by Patrick K. O'Donnell / 2021-05-14The Indispensables: The Diverse Soldier-Mariners Who Shaped the Country, Formed the Navy, and Rowed Washington Across the Delaware
  38. 2021-05-14Jimmy Fallon 2021 05 13 Keegan-Michael Key 1080p HEVC x265-MeGusta
  39. 2021-05-14Wild Mountain Thyme 2020 1080p BluRay x264 DTS-MT
  40. 2021-05-14I Am All Girls 2021 1080p WEBRip x265-RARBG
  41. 2021-05-14North Hollywood 2021 720p WEB h264-RUMOUR
  42. 2021-05-14Outback Truckers S09E02 720p HEVC x265-MeGusta
  43. 2021-05-14Seth Meyers 2021 05 13 Anthony Mackie 720p HEVC x265-MeGusta
  44. 2021-05-14North Hollywood 2021 1080p WEB h264-RUMOUR
  45. 2021-05-14The Great Pottery Throw Down S04E02 720p HEVC x265-MeGusta
  46. 2021-05-14Mysteries of the Universe Our Solar System S02E01 Secrets of Saturn 1080p HEVC x265-MeGusta
  47. 2021-05-14Wild Mountain Thyme 2020 1080p BluRay H264 AAC-RARBG
  48. 2021-05-14Mysteries of the Universe Our Solar System S01E03 Mission to the Sun 1080p HEVC x265-MeGusta
  49. 2021-05-14The Great Pottery Throw Down S04E09 720p HEVC x265-MeGusta
  50. 2021-05-14Digital Figure Painting - Iliya Mirochnik (Full 1 - 8)
  51. 2021-05-14The Great Pottery Throw Down S04E03 720p HEVC x265-MeGusta
  52. 2021-05-14SMB - Amy Meissner - The Time Zone Options System
  53. 2021-05-14Mysteries of the Universe Our Solar System S01E02 Jupiters Alien Secrets 1080p HEVC x265-MeGusta
  54. 2021-05-14American Fighter 2021 1080p BluRay 1400MB DD5 1 x264-GalaxyRG
  55. 2021-05-14North Hollywood 2021 1080p WEBRip x264-RARBG
  56. 2021-05-14Depesh Mandalia - The BPM Method 2020 - Removed
  57. 2021-05-14The Rest of Us 2019 1080p WEBRip x265-RARBG
  58. 2021-05-14Trail of the Panda 2009 DUBBED 1080p WEBRip x265-RARBG
  59. 2021-05-14The Scary House 2020 GERMAN 1080p WEBRip x265-VXT
  60. 2021-05-14SMB - Amy Meissner - The Time Zone Options System
  61. 2021-05-14Affiliate Tube Success Academy - Paul Murphy
  62. 2021-05-14Straight Line Sales Cert 4.0 by Jordan Belfort - Removed
  63. 2021-05-14Seth Meyers 2021 05 13 Anthony Mackie 1080p HEVC x265-MeGusta
  64. 2021-05-14Outback Truckers S09E02 1080p HEVC x265-MeGusta
  65. 2021-05-14Lilly Singh 2021 05 13 Natalie Wynn 1080p HEVC x265-MeGusta
  66. 2021-05-14The Underground Railroad S01E06 REPACK 720p HEVC x265-MeGusta
  67. 2021-05-14The Great Pottery Throw Down S04E06 1080p HEVC x265-MeGusta
  68. 2021-05-14The Great Pottery Throw Down S04E08 720p HEVC x265-MeGusta
  69. 2021-05-14The Daily Show 2021 05 13 Frank Luntz 1080p HEVC x265-MeGusta
  70. 2021-05-14So Im a Spider So What S01E18 1080p HEVC x265-MeGusta
  71. 2021-05-14The Great Pottery Throw Down S04E04 1080p HEVC x265-MeGusta
  72. 2021-05-14The Mist 2007 720p BluRay 999MB HQ x265 10bit-GalaxyRG
  73. 2021-05-14Rolling Thunder 1977 720p BluRay 999MB HQ x265 10bit-GalaxyRG
  74. 2021-05-14The Great Pottery Throw Down S04E01 1080p HEVC x265-MeGusta
  75. 2021-05-14Jungle Beat The Movie (2020) 1080p WEB-DL H264 AC3-EVO
  76. 2021-05-14The Woman in the Window (2021) 1080p NF WEB-DL DDP5 1 Atmos x264-EVO
  77. 2021-05-14The Great Pottery Throw Down S04E05 1080p HEVC x265-MeGusta
  78. 2021-05-14North Hollywood (2021) 1080p WEB-DL DD5 1 H264-CMRG
  79. 2021-05-14Faster S01E01 The Elevator 2020 1080p HEVC x265-MeGusta
  80. 2021-05-14Autodesk Flame 2022 (x64) MACOSX
  81. 2021-05-14I Am All Girls (2021) 1080p NF WEB-DL DDP5 1 x264-CMRG
  82. 2021-05-14The Underground Railroad S01E07 REPACK 720p HEVC x265-MeGusta
  83. 2021-05-14The Djinn (2021) 1080p WEB-DL DD5 1 H 264-EVO - Removed
  84. 2021-05-14New Zealand Today S02E06 1080p HEVC x265-MeGusta
  85. 2021-05-14Those Who Wish Me Dead (2021) 1080p HMAX WEB-DL DD5 1 x264-EVO
  86. 2021-05-14SSSS DYNAZENON S01E07 720p HEVC x265-MeGusta
  87. 2021-05-147 Days NZ S13E06 1080p HEVC x265-MeGusta
  88. 2021-05-14SSSS DYNAZENON S01E07 1080p HEVC x265-MeGusta
  89. by Symon He / 2021-05-14Real Estate Investing QuickStart Guide: The Simplified Beginner’s Guide to Successfully Securing Financing, Closing Your First Deal, and Building ... Real Estate
  90. 2021-05-14Fire Masters S04E06 Are You Grillin Me 1080p HEVC x265-MeGusta
  91. 2021-05-14Swamp People S12E14 720p HEVC x265-MeGusta
  92. 2021-05-14Domina S01E01 1080p HEVC x265-MeGusta
  93. by V.Courtney Broaddus MD / 2021-05-14Murray & Nadel's Textbook of Respiratory Medicine, 2-Volume Set (Murray and Nadel's Textbook of Respiratory Medicine) 7th Edition
  94. 2021-05-14Blackmagic Design Fusion Studio 17.2 macOS
  95. by Loreth Anne White / 2021-05-14Beneath Devil's Bridge: A Novel
  96. 2021-05-14All Rise S02E14 WEB H264-GGEZ
  97. 2021-05-14Facebook Outreach Mastery 2021
  98. 2021-05-14Controlling Program Flow in C#
  99. 2021-05-14Advanced SystemCare Ultimate v14.2.0.157 Multilingual

More eBooks ...

52557 pages, 5255684 eBooks in total, list all pages->

Search free ebooks in ebookee.com!
Back to Top